Weather reports worldwide

Advertisment
St-Raphael, France (7680): temperature & dewpoint: 20.09.2018 17:00:00 - 26.09.2018 17:00:00 (CEST)St-Raphael, France (7680): wind speed & gusts: 20.09.2018 17:00:00 - 26.09.2018 17:00:00 (CEST)St-Raphael, France (7680): wind direction: 20.09.2018 17:00:00 - 26.09.2018 17:00:00 (CEST)St-Raphael, France (7680): precipitation: 20.09.2018 17:00:00 - 26.09.2018 17:00:00 (CEST)
Date & Time tt [°C] td [°C] ff [km/h] ff [kn] fx [km/h] fx [kn] dd rr [mm]
26.09.2018 17:00:00 22,6 11,0 13 7 35 19 ESE 0,0
26.09.2018 16:00:00 22,6 11,6 15 8 34 18 ESE 0,0
26.09.2018 15:00:00 22,7 10,8 15 8 31 17 ESE 0,0
26.09.2018 14:00:00 22,4 10,2 16 9 35 19 ESE -
26.09.2018 13:00:00 22,0 10,2 18 10 41 22 ESE 0,0
26.09.2018 12:00:00 21,9 10,1 16 9 41 22 E 0,0
26.09.2018 11:00:00 21,3 9,5 21 11 48 26 E 0,0
26.09.2018 10:00:00 20,9 9,2 18 10 46 25 E 0,0
26.09.2018 09:00:00 20,3 8,6 21 11 46 25 E 0,0
26.09.2018 08:00:00 19,7 8,7 18 10 48 26 E -
26.09.2018 07:00:00 19,6 7,7 22 12 52 28 E 0,0
26.09.2018 06:00:00 19,7 8,7 18 10 41 22 E 0,0
26.09.2018 05:00:00 19,9 8,9 18 10 46 25 E 0,0
26.09.2018 04:00:00 20,4 7,7 18 10 46 25 ENE 0,0
26.09.2018 03:00:00 20,8 7,4 22 12 48 26 ENE 0,0
26.09.2018 02:00:00 21,1 6,6 21 11 42 23 E -
26.09.2018 01:00:00 21,0 9,6 13 7 41 22 ENE 0,0
26.09.2018 00:00:00 21,4 8,0 18 10 39 21 ENE 0,0
25.09.2018 23:00:00 21,8 8,7 11 6 39 21 ENE 0,0
25.09.2018 22:00:00 22,2 9,0 15 8 39 21 E 0,0
25.09.2018 21:00:00 22,1 10,9 15 8 41 22 E 0,0
25.09.2018 20:00:00 22,2 9,0 16 9 42 23 E -
25.09.2018 19:00:00 22,6 10,4 16 9 35 19 E 0,0
25.09.2018 18:00:00 22,6 11,3 18 10 39 21 E 0,0
25.09.2018 17:00:00 23,3 11,7 18 10 42 23 E 0,0
25.09.2018 16:00:00 23,1 12,1 18 10 48 26 E 0,0
25.09.2018 15:00:00 22,9 11,0 22 12 48 26 E 0,0
25.09.2018 14:00:00 23,3 10,7 22 12 52 28 E -
25.09.2018 13:00:00 23,8 11,5 21 11 50 27 E 0,0
25.09.2018 12:00:00 23,4 11,1 22 12 59 32 E 0,0
25.09.2018 11:00:00 23,3 9,3 24 13 59 32 E 0,0
25.09.2018 10:00:00 23,4 8,7 24 13 59 32 E 0,0
25.09.2018 09:00:00 23,1 9,1 22 12 54 29 E 0,0
25.09.2018 08:00:00 22,8 8,1 21 11 48 26 E -
25.09.2018 07:00:00 22,8 9,9 15 8 35 19 ENE 0,0
25.09.2018 06:00:00 22,5 10,6 13 7 31 17 ENE 0,0
25.09.2018 05:00:00 23,7 12,3 11 6 42 23 ENE 0,0
25.09.2018 04:00:00 23,7 11,1 15 8 50 27 E 0,0
25.09.2018 03:00:00 18,8 9,3 9 5 18 10 W 0,0
25.09.2018 02:00:00 19,6 8,6 8 4 18 10 NW -
25.09.2018 01:00:00 20,1 8,7 8 4 18 10 N 0,0
25.09.2018 00:00:00 21,1 8,7 5 3 26 14 NNE 0,0
24.09.2018 23:00:00 22,4 8,9 11 6 28 15 NW 0,0
24.09.2018 22:00:00 23,4 9,0 13 7 26 14 NW 0,0
24.09.2018 21:00:00 24,1 14,5 0 0 5 3 N 0,0
24.09.2018 20:00:00 25,4 15,4 4 2 13 7 S -
24.09.2018 19:00:00 26,9 14,3 5 3 16 9 SSE 0,0
24.09.2018 18:00:00 27,3 16,3 8 4 18 10 SE 0,0
24.09.2018 17:00:00 28,6 17,8 8 4 24 13 SE 0,0
24.09.2018 16:00:00 29,0 20,7 9 5 26 14 SSE 0,0
24.09.2018 15:00:00 28,8 20,5 11 6 35 19 ESE 0,0
24.09.2018 14:00:00 30,1 15,0 4 2 22 12 NE -
24.09.2018 13:00:00 28,3 14,5 11 6 34 18 W 0,0
24.09.2018 12:00:00 26,3 10,8 18 10 31 17 W 0,0
24.09.2018 11:00:00 24,1 11,1 22 12 41 22 W 0,0
24.09.2018 10:00:00 23,0 10,4 24 13 54 29 W 0,0
24.09.2018 09:00:00 22,7 10,8 29 16 55 30 W 0,0
24.09.2018 08:00:00 23,3 11,4 16 9 70 38 W -
24.09.2018 07:00:00 24,5 12,1 29 16 59 32 W 0,0
24.09.2018 06:00:00 25,1 13,9 34 18 55 30 W 0,0
24.09.2018 05:00:00 26,0 14,1 24 13 57 31 W 0,0
24.09.2018 04:00:00 26,3 14,1 26 14 54 29 W 0,0
24.09.2018 03:00:00 26,1 14,9 24 13 52 28 W 0,0
24.09.2018 02:00:00 26,5 15,5 26 14 48 26 W -
24.09.2018 01:00:00 25,9 16,2 18 10 42 23 WNW 0,0
24.09.2018 00:00:00 20,7 17,9 4 2 9 5 E 0,0
23.09.2018 23:00:00 21,9 18,5 4 2 11 6 N 0,0
23.09.2018 22:00:00 22,0 18,4 5 3 11 6 NW 0,0
23.09.2018 21:00:00 23,6 17,1 4 2 11 6 S 0,0
23.09.2018 20:00:00 24,3 18,7 5 3 15 8 SSE -
23.09.2018 19:00:00 25,2 20,7 9 5 22 12 SE 0,0
23.09.2018 18:00:00 26,2 20,1 9 5 22 12 SE 0,0
23.09.2018 17:00:00 26,7 21,7 11 6 24 13 SE 0,0
23.09.2018 16:00:00 26,9 21,4 11 6 26 14 SE 0,0
23.09.2018 15:00:00 27,5 21,1 11 6 24 13 ESE 0,0
23.09.2018 14:00:00 27,4 21,0 9 5 22 12 SE -
23.09.2018 13:00:00 27,0 20,6 9 5 21 11 ESE 0,0
23.09.2018 12:00:00 26,9 19,5 4 2 11 6 SE 0,0
23.09.2018 11:00:00 25,5 16,4 8 4 18 10 WNW 0,0
23.09.2018 10:00:00 22,8 12,7 11 6 21 11 WNW 0,0
23.09.2018 09:00:00 20,2 11,9 8 4 18 10 NW 0,0
23.09.2018 08:00:00 18,1 13,6 8 4 16 9 WNW -
23.09.2018 07:00:00 19,0 13,6 5 3 15 8 NW 0,0
23.09.2018 06:00:00 18,0 15,3 4 2 11 6 W 0,0
23.09.2018 05:00:00 18,7 15,2 9 5 15 8 W 0,0
23.09.2018 04:00:00 19,5 16,0 5 3 16 9 NW 0,0
23.09.2018 03:00:00 19,5 16,3 5 3 11 6 NW 0,0
23.09.2018 02:00:00 19,8 16,2 5 3 9 5 NW -
23.09.2018 01:00:00 20,2 16,2 4 2 13 7 NW 0,0
23.09.2018 00:00:00 20,6 17,4 4 2 9 5 NW 0,0
22.09.2018 23:00:00 21,3 16,3 4 2 8 4 NW 0,0
22.09.2018 22:00:00 21,1 15,9 2 1 5 3 NNW 0,0
22.09.2018 21:00:00 21,9 16,0 2 1 4 2 WSW 0,0
22.09.2018 20:00:00 24,2 15,4 2 1 9 5 SE -
22.09.2018 19:00:00 26,2 14,6 4 2 9 5 SE 0,0
22.09.2018 18:00:00 27,0 13,7 5 3 18 10 ESE 0,0
22.09.2018 17:00:00 28,2 14,8 11 6 22 12 SSE 0,0
22.09.2018 16:00:00 28,3 15,9 9 5 26 14 SE 0,0
22.09.2018 15:00:00 28,7 19,9 11 6 22 12 SE 0,0
22.09.2018 14:00:00 28,5 18,9 9 5 22 12 SE -
22.09.2018 13:00:00 28,3 19,8 9 5 24 13 SE 0,0
22.09.2018 12:00:00 27,9 14,9 8 4 18 10 WSW 0,0
22.09.2018 11:00:00 26,5 16,1 9 5 26 14 WNW 0,0
22.09.2018 10:00:00 24,3 12,6 15 8 28 15 WNW 0,0
22.09.2018 09:00:00 22,0 12,0 13 7 24 13 WNW 0,0
22.09.2018 08:00:00 21,6 12,4 11 6 37 20 NW -
22.09.2018 07:00:00 22,2 12,4 15 8 34 18 WNW 0,0
22.09.2018 06:00:00 23,0 12,3 15 8 34 18 W 0,0
22.09.2018 05:00:00 24,3 11,9 11 6 34 18 WNW 0,0
22.09.2018 04:00:00 24,7 12,3 13 7 35 19 W 0,0
22.09.2018 03:00:00 25,2 13,1 18 10 39 21 W 0,0
22.09.2018 02:00:00 25,2 14,3 18 10 31 17 W -
22.09.2018 01:00:00 25,8 15,8 18 10 35 19 W 0,0
22.09.2018 00:00:00 26,3 16,2 18 10 35 19 W 0,0
21.09.2018 23:00:00 26,2 15,6 13 7 29 16 W 0,0
21.09.2018 22:00:00 24,9 17,6 8 4 16 9 NW 0,0
21.09.2018 21:00:00 24,1 19,0 4 2 9 5 NW 0,0
21.09.2018 20:00:00 26,2 19,3 2 1 11 6 SE -
21.09.2018 19:00:00 28,5 18,9 2 1 18 10 NE 0,0
21.09.2018 18:00:00 30,2 18,9 11 6 26 14 NE 0,0
21.09.2018 17:00:00 34,8 11,9 15 8 34 18 W 0,0
21.09.2018 16:00:00 34,9 11,3 18 10 37 20 W 0,0
21.09.2018 15:00:00 34,2 12,5 11 6 41 22 W 0,0
21.09.2018 14:00:00 29,9 20,2 21 11 37 20 SSE -
21.09.2018 13:00:00 28,4 20,4 13 7 24 13 SE 0,0
21.09.2018 12:00:00 30,4 17,1 5 3 21 11 SE 0,0
21.09.2018 11:00:00 27,6 16,9 8 4 21 11 NW 0,0
21.09.2018 10:00:00 24,6 17,1 8 4 22 12 NW 0,0
21.09.2018 09:00:00 21,9 16,6 11 6 22 12 NNW 0,0
21.09.2018 08:00:00 19,9 16,5 8 4 18 10 NNW -
21.09.2018 07:00:00 19,6 16,4 8 4 18 10 NNW 0,0
21.09.2018 06:00:00 20,0 16,6 9 5 21 11 NNW 0,0
21.09.2018 05:00:00 20,6 16,6 8 4 21 11 NNW 0,0
21.09.2018 04:00:00 21,1 16,9 9 5 18 10 NNW 0,0
21.09.2018 03:00:00 21,9 17,1 9 5 18 10 NW 0,0
21.09.2018 02:00:00 21,7 17,1 8 4 18 10 NW -
21.09.2018 01:00:00 22,4 17,3 8 4 15 8 NW 0,0
21.09.2018 00:00:00 22,9 17,4 5 3 13 7 NW 0,0
20.09.2018 23:00:00 23,4 17,8 5 3 15 8 NW 0,0
20.09.2018 22:00:00 22,9 18,4 5 3 11 6 NW 0,0
20.09.2018 21:00:00 23,5 18,4 4 2 11 6 WNW 0,0
20.09.2018 20:00:00 24,0 19,7 2 1 8 4 NNE -
20.09.2018 19:00:00 25,8 20,4 4 2 15 8 S 0,0
20.09.2018 18:00:00 26,7 20,5 8 4 18 10 SE 0,0
20.09.2018 17:00:00 27,3 20,6 8 4 18 10 SE 0,0

tt = temperature
td = dewpoint
ff = wind speed
fx = gusts
dd = wind direction
rr = precipitation

Next stations